sensor_id;sensor_type;location;lat;lon;timestamp;P1;durP1;ratioP1;P2;durP2;ratioP2
20369;SDS011;10344;47.592;9.600;2023-12-20T00:01:49;3.80;;;3.20;;
20369;SDS011;10344;47.592;9.600;2023-12-20T00:04:15;3.92;;;3.40;;
20369;SDS011;10344;47.592;9.600;2023-12-20T00:06:41;3.05;;;2.70;;
20369;SDS011;10344;47.592;9.600;2023-12-20T00:09:08;3.73;;;3.33;;
20369;SDS011;10344;47.592;9.600;2023-12-20T00:11:34;3.75;;;2.85;;
20369;SDS011;10344;47.592;9.600;2023-12-20T00:14:00;3.30;;;2.90;;
20369;SDS011;10344;47.592;9.600;2023-12-20T00:16:27;3.60;;;2.90;;
20369;SDS011;10344;47.592;9.600;2023-12-20T00:18:56;3.42;;;3.08;;
20369;SDS011;10344;47.592;9.600;2023-12-20T00:21:22;3.53;;;3.23;;
20369;SDS011;10344;47.592;9.600;2023-12-20T00:23:51;3.57;;;3.13;;
20369;SDS011;10344;47.592;9.600;2023-12-20T00:26:16;3.85;;;3.22;;
20369;SDS011;10344;47.592;9.600;2023-12-20T00:28:42;3.83;;;3.13;;
20369;SDS011;10344;47.592;9.600;2023-12-20T00:31:07;3.78;;;3.35;;
20369;SDS011;10344;47.592;9.600;2023-12-20T00:33:33;4.22;;;3.13;;
20369;SDS011;10344;47.592;9.600;2023-12-20T00:35:59;3.80;;;3.40;;
20369;SDS011;10344;47.592;9.600;2023-12-20T00:38:24;4.13;;;3.70;;
20369;SDS011;10344;47.592;9.600;2023-12-20T00:40:50;3.58;;;3.22;;
20369;SDS011;10344;47.592;9.600;2023-12-20T00:43:15;4.28;;;3.38;;
20369;SDS011;10344;47.592;9.600;2023-12-20T00:45:41;4.33;;;3.60;;
20369;SDS011;10344;47.592;9.600;2023-12-20T00:48:07;3.90;;;3.20;;
20369;SDS011;10344;47.592;9.600;2023-12-20T00:50:32;4.28;;;3.47;;
20369;SDS011;10344;47.592;9.600;2023-12-20T00:52:58;3.70;;;3.30;;
20369;SDS011;10344;47.592;9.600;2023-12-20T00:55:26;3.58;;;3.10;;
20369;SDS011;10344;47.592;9.600;2023-12-20T00:57:52;4.33;;;3.43;;
20369;SDS011;10344;47.592;9.600;2023-12-20T01:00:18;3.83;;;3.22;;
20369;SDS011;10344;47.592;9.600;2023-12-20T01:02:44;3.90;;;3.30;;
20369;SDS011;10344;47.592;9.600;2023-12-20T01:05:11;4.10;;;3.35;;
20369;SDS011;10344;47.592;9.600;2023-12-20T01:07:39;4.30;;;3.73;;
20369;SDS011;10344;47.592;9.600;2023-12-20T01:10:05;4.35;;;3.65;;
20369;SDS011;10344;47.592;9.600;2023-12-20T01:12:31;4.37;;;3.73;;
20369;SDS011;10344;47.592;9.600;2023-12-20T01:14:56;5.13;;;4.15;;
20369;SDS011;10344;47.592;9.600;2023-12-20T01:17:23;5.50;;;4.70;;
20369;SDS011;10344;47.592;9.600;2023-12-20T01:19:49;4.83;;;4.23;;
20369;SDS011;10344;47.592;9.600;2023-12-20T01:22:15;5.28;;;4.25;;
20369;SDS011;10344;47.592;9.600;2023-12-20T01:24:44;5.03;;;4.53;;
20369;SDS011;10344;47.592;9.600;2023-12-20T01:27:14;5.78;;;4.80;;
20369;SDS011;10344;47.592;9.600;2023-12-20T01:29:40;5.70;;;4.47;;
20369;SDS011;10344;47.592;9.600;2023-12-20T01:32:05;5.30;;;4.40;;
20369;SDS011;10344;47.592;9.600;2023-12-20T01:34:31;4.97;;;4.43;;
20369;SDS011;10344;47.592;9.600;2023-12-20T01:36:59;4.80;;;4.20;;
20369;SDS011;10344;47.592;9.600;2023-12-20T01:39:25;6.32;;;4.47;;
20369;SDS011;10344;47.592;9.600;2023-12-20T01:41:50;5.77;;;4.53;;
20369;SDS011;10344;47.592;9.600;2023-12-20T01:44:16;5.17;;;4.47;;
20369;SDS011;10344;47.592;9.600;2023-12-20T01:46:44;4.78;;;4.15;;
20369;SDS011;10344;47.592;9.600;2023-12-20T01:49:10;4.97;;;4.15;;
20369;SDS011;10344;47.592;9.600;2023-12-20T01:51:38;5.00;;;4.05;;
20369;SDS011;10344;47.592;9.600;2023-12-20T01:54:06;5.38;;;4.40;;
20369;SDS011;10344;47.592;9.600;2023-12-20T01:56:32;5.17;;;4.60;;
20369;SDS011;10344;47.592;9.600;2023-12-20T01:58:58;5.43;;;4.20;;
20369;SDS011;10344;47.592;9.600;2023-12-20T02:01:25;5.35;;;4.50;;
20369;SDS011;10344;47.592;9.600;2023-12-20T02:03:53;5.93;;;4.68;;
20369;SDS011;10344;47.592;9.600;2023-12-20T02:06:19;5.88;;;4.82;;
20369;SDS011;10344;47.592;9.600;2023-12-20T02:08:48;7.00;;;5.32;;
20369;SDS011;10344;47.592;9.600;2023-12-20T02:11:15;6.88;;;5.38;;
20369;SDS011;10344;47.592;9.600;2023-12-20T02:13:43;6.35;;;5.47;;
20369;SDS011;10344;47.592;9.600;2023-12-20T02:16:09;7.57;;;5.78;;
20369;SDS011;10344;47.592;9.600;2023-12-20T02:18:34;7.47;;;6.10;;
20369;SDS011;10344;47.592;9.600;2023-12-20T02:21:00;8.65;;;6.43;;
20369;SDS011;10344;47.592;9.600;2023-12-20T02:23:28;7.15;;;5.97;;
20369;SDS011;10344;47.592;9.600;2023-12-20T02:25:54;8.82;;;6.50;;
20369;SDS011;10344;47.592;9.600;2023-12-20T02:28:20;8.07;;;6.22;;
20369;SDS011;10344;47.592;9.600;2023-12-20T02:30:47;9.65;;;6.18;;
20369;SDS011;10344;47.592;9.600;2023-12-20T02:33:14;7.97;;;6.10;;
20369;SDS011;10344;47.592;9.600;2023-12-20T02:35:40;7.95;;;6.07;;
20369;SDS011;10344;47.592;9.600;2023-12-20T02:38:06;7.60;;;5.93;;
20369;SDS011;10344;47.592;9.600;2023-12-20T02:40:32;7.68;;;5.93;;
20369;SDS011;10344;47.592;9.600;2023-12-20T02:42:57;7.67;;;6.13;;
20369;SDS011;10344;47.592;9.600;2023-12-20T02:45:23;7.65;;;6.18;;
20369;SDS011;10344;47.592;9.600;2023-12-20T02:47:49;6.97;;;6.00;;
20369;SDS011;10344;47.592;9.600;2023-12-20T02:50:17;8.63;;;6.20;;
20369;SDS011;10344;47.592;9.600;2023-12-20T02:52:44;7.70;;;6.00;;
20369;SDS011;10344;47.592;9.600;2023-12-20T02:55:12;7.45;;;6.20;;
20369;SDS011;10344;47.592;9.600;2023-12-20T02:57:40;7.60;;;5.60;;
20369;SDS011;10344;47.592;9.600;2023-12-20T03:00:07;6.90;;;5.78;;
20369;SDS011;10344;47.592;9.600;2023-12-20T03:02:34;6.32;;;5.10;;
20369;SDS011;10344;47.592;9.600;2023-12-20T03:05:00;6.63;;;5.47;;
20369;SDS011;10344;47.592;9.600;2023-12-20T03:07:26;7.73;;;5.80;;
20369;SDS011;10344;47.592;9.600;2023-12-20T03:09:56;7.22;;;5.53;;
20369;SDS011;10344;47.592;9.600;2023-12-20T03:12:21;7.18;;;5.47;;
20369;SDS011;10344;47.592;9.600;2023-12-20T03:14:49;7.07;;;5.85;;
20369;SDS011;10344;47.592;9.600;2023-12-20T03:17:15;6.80;;;6.10;;
20369;SDS011;10344;47.592;9.600;2023-12-20T03:19:41;6.75;;;5.95;;
20369;SDS011;10344;47.592;9.600;2023-12-20T03:22:06;6.67;;;5.70;;
20369;SDS011;10344;47.592;9.600;2023-12-20T03:24:32;7.87;;;5.67;;
20369;SDS011;10344;47.592;9.600;2023-12-20T03:26:57;6.68;;;5.75;;
20369;SDS011;10344;47.592;9.600;2023-12-20T03:29:23;6.15;;;5.55;;
20369;SDS011;10344;47.592;9.600;2023-12-20T03:31:49;6.90;;;5.50;;
20369;SDS011;10344;47.592;9.600;2023-12-20T03:34:14;6.20;;;5.23;;
20369;SDS011;10344;47.592;9.600;2023-12-20T03:36:40;6.75;;;5.40;;
20369;SDS011;10344;47.592;9.600;2023-12-20T03:39:06;6.40;;;5.20;;
20369;SDS011;10344;47.592;9.600;2023-12-20T03:41:32;5.65;;;5.05;;
20369;SDS011;10344;47.592;9.600;2023-12-20T03:43:58;6.90;;;5.05;;
20369;SDS011;10344;47.592;9.600;2023-12-20T03:46:23;5.87;;;4.83;;
20369;SDS011;10344;47.592;9.600;2023-12-20T03:48:49;7.00;;;5.60;;
20369;SDS011;10344;47.592;9.600;2023-12-20T03:51:15;6.70;;;5.10;;
20369;SDS011;10344;47.592;9.600;2023-12-20T03:53:40;6.00;;;4.82;;
20369;SDS011;10344;47.592;9.600;2023-12-20T03:56:08;6.60;;;4.45;;
20369;SDS011;10344;47.592;9.600;2023-12-20T03:58:34;6.68;;;4.78;;
20369;SDS011;10344;47.592;9.600;2023-12-20T04:00:59;6.38;;;5.00;;
20369;SDS011;10344;47.592;9.600;2023-12-20T04:03:25;6.10;;;4.10;;
20369;SDS011;10344;47.592;9.600;2023-12-20T04:05:51;6.30;;;5.10;;
20369;SDS011;10344;47.592;9.600;2023-12-20T04:08:16;6.22;;;4.93;;
20369;SDS011;10344;47.592;9.600;2023-12-20T04:10:42;6.63;;;4.50;;
20369;SDS011;10344;47.592;9.600;2023-12-20T04:13:07;7.17;;;5.17;;
20369;SDS011;10344;47.592;9.600;2023-12-20T04:15:35;6.78;;;5.57;;
20369;SDS011;10344;47.592;9.600;2023-12-20T04:18:01;6.73;;;5.20;;
20369;SDS011;10344;47.592;9.600;2023-12-20T04:20:27;5.97;;;5.28;;
20369;SDS011;10344;47.592;9.600;2023-12-20T04:22:55;5.75;;;5.15;;
20369;SDS011;10344;47.592;9.600;2023-12-20T04:25:20;6.87;;;5.77;;
20369;SDS011;10344;47.592;9.600;2023-12-20T04:27:46;8.05;;;5.55;;
20369;SDS011;10344;47.592;9.600;2023-12-20T04:30:11;6.53;;;5.33;;
20369;SDS011;10344;47.592;9.600;2023-12-20T04:32:38;8.63;;;6.13;;
20369;SDS011;10344;47.592;9.600;2023-12-20T04:35:03;7.80;;;6.67;;
20369;SDS011;10344;47.592;9.600;2023-12-20T04:37:29;7.90;;;6.60;;
20369;SDS011;10344;47.592;9.600;2023-12-20T04:39:55;8.27;;;6.50;;
20369;SDS011;10344;47.592;9.600;2023-12-20T04:42:20;8.20;;;6.88;;
20369;SDS011;10344;47.592;9.600;2023-12-20T04:44:46;7.97;;;6.68;;
20369;SDS011;10344;47.592;9.600;2023-12-20T04:47:14;9.47;;;7.50;;
20369;SDS011;10344;47.592;9.600;2023-12-20T04:49:39;7.90;;;6.68;;
20369;SDS011;10344;47.592;9.600;2023-12-20T04:52:07;7.60;;;6.72;;
20369;SDS011;10344;47.592;9.600;2023-12-20T04:54:33;8.95;;;7.10;;
20369;SDS011;10344;47.592;9.600;2023-12-20T04:56:59;8.40;;;6.77;;
20369;SDS011;10344;47.592;9.600;2023-12-20T04:59:27;9.68;;;7.13;;
20369;SDS011;10344;47.592;9.600;2023-12-20T05:01:52;8.70;;;6.50;;
20369;SDS011;10344;47.592;9.600;2023-12-20T05:04:18;6.43;;;5.47;;
20369;SDS011;10344;47.592;9.600;2023-12-20T05:06:43;2.85;;;2.30;;
20369;SDS011;10344;47.592;9.600;2023-12-20T05:09:09;2.97;;;2.00;;
20369;SDS011;10344;47.592;9.600;2023-12-20T05:11:35;2.40;;;2.20;;
20369;SDS011;10344;47.592;9.600;2023-12-20T05:14:03;2.22;;;2.03;;
20369;SDS011;10344;47.592;9.600;2023-12-20T05:16:28;2.50;;;2.13;;
20369;SDS011;10344;47.592;9.600;2023-12-20T05:18:54;2.92;;;2.25;;
20369;SDS011;10344;47.592;9.600;2023-12-20T05:21:19;2.92;;;1.95;;
20369;SDS011;10344;47.592;9.600;2023-12-20T05:23:45;2.43;;;2.13;;
20369;SDS011;10344;47.592;9.600;2023-12-20T05:26:11;3.60;;;2.10;;
20369;SDS011;10344;47.592;9.600;2023-12-20T05:28:39;1.98;;;1.83;;
20369;SDS011;10344;47.592;9.600;2023-12-20T05:31:05;2.17;;;1.97;;
20369;SDS011;10344;47.592;9.600;2023-12-20T05:33:31;1.97;;;1.77;;
20369;SDS011;10344;47.592;9.600;2023-12-20T05:35:59;1.80;;;1.70;;
20369;SDS011;10344;47.592;9.600;2023-12-20T05:38:25;1.85;;;1.60;;
20369;SDS011;10344;47.592;9.600;2023-12-20T05:40:51;2.38;;;1.80;;
20369;SDS011;10344;47.592;9.600;2023-12-20T05:43:18;2.65;;;1.95;;
20369;SDS011;10344;47.592;9.600;2023-12-20T05:45:44;1.73;;;1.63;;
20369;SDS011;10344;47.592;9.600;2023-12-20T05:48:10;1.80;;;1.70;;
20369;SDS011;10344;47.592;9.600;2023-12-20T05:50:36;2.33;;;2.10;;
20369;SDS011;10344;47.592;9.600;2023-12-20T05:53:02;2.37;;;2.10;;
20369;SDS011;10344;47.592;9.600;2023-12-20T05:55:27;2.13;;;1.90;;
20369;SDS011;10344;47.592;9.600;2023-12-20T05:57:53;2.60;;;1.95;;
20369;SDS011;10344;47.592;9.600;2023-12-20T06:00:18;2.07;;;1.83;;
20369;SDS011;10344;47.592;9.600;2023-12-20T06:02:44;2.20;;;2.00;;
20369;SDS011;10344;47.592;9.600;2023-12-20T06:05:10;2.30;;;2.10;;
20369;SDS011;10344;47.592;9.600;2023-12-20T06:07:35;2.10;;;1.90;;
20369;SDS011;10344;47.592;9.600;2023-12-20T06:10:01;2.13;;;1.92;;
20369;SDS011;10344;47.592;9.600;2023-12-20T06:12:31;2.50;;;2.15;;
20369;SDS011;10344;47.592;9.600;2023-12-20T06:15:00;2.20;;;2.00;;
20369;SDS011;10344;47.592;9.600;2023-12-20T06:17:31;2.05;;;1.85;;
20369;SDS011;10344;47.592;9.600;2023-12-20T06:19:57;2.13;;;1.83;;
20369;SDS011;10344;47.592;9.600;2023-12-20T06:22:22;2.10;;;1.80;;
20369;SDS011;10344;47.592;9.600;2023-12-20T06:24:48;2.00;;;1.80;;
20369;SDS011;10344;47.592;9.600;2023-12-20T06:27:13;2.38;;;1.70;;
20369;SDS011;10344;47.592;9.600;2023-12-20T06:29:39;2.00;;;1.50;;
20369;SDS011;10344;47.592;9.600;2023-12-20T06:32:07;1.63;;;1.53;;
20369;SDS011;10344;47.592;9.600;2023-12-20T06:34:32;1.70;;;1.40;;
20369;SDS011;10344;47.592;9.600;2023-12-20T06:36:58;1.40;;;1.30;;
20369;SDS011;10344;47.592;9.600;2023-12-20T06:39:24;1.20;;;1.10;;
20369;SDS011;10344;47.592;9.600;2023-12-20T06:41:49;1.25;;;1.15;;
20369;SDS011;10344;47.592;9.600;2023-12-20T06:44:17;1.20;;;1.10;;
20369;SDS011;10344;47.592;9.600;2023-12-20T06:46:43;1.20;;;1.10;;
20369;SDS011;10344;47.592;9.600;2023-12-20T06:49:11;1.10;;;1.10;;
20369;SDS011;10344;47.592;9.600;2023-12-20T06:51:40;0.90;;;0.90;;
20369;SDS011;10344;47.592;9.600;2023-12-20T06:54:05;1.20;;;1.10;;
20369;SDS011;10344;47.592;9.600;2023-12-20T06:56:33;0.90;;;0.80;;
20369;SDS011;10344;47.592;9.600;2023-12-20T06:58:59;1.40;;;0.90;;
20369;SDS011;10344;47.592;9.600;2023-12-20T07:01:24;0.98;;;0.90;;
20369;SDS011;10344;47.592;9.600;2023-12-20T07:03:50;1.02;;;0.68;;
20369;SDS011;10344;47.592;9.600;2023-12-20T07:06:16;0.80;;;0.80;;
20369;SDS011;10344;47.592;9.600;2023-12-20T07:08:44;1.20;;;1.10;;
20369;SDS011;10344;47.592;9.600;2023-12-20T07:11:09;0.83;;;0.83;;
20369;SDS011;10344;47.592;9.600;2023-12-20T07:13:35;0.90;;;0.90;;
20369;SDS011;10344;47.592;9.600;2023-12-20T07:16:01;1.25;;;1.10;;
20369;SDS011;10344;47.592;9.600;2023-12-20T07:18:29;1.27;;;1.17;;
20369;SDS011;10344;47.592;9.600;2023-12-20T07:20:57;1.23;;;1.08;;
20369;SDS011;10344;47.592;9.600;2023-12-20T07:23:22;1.33;;;1.23;;
20369;SDS011;10344;47.592;9.600;2023-12-20T07:25:48;1.48;;;1.38;;
20369;SDS011;10344;47.592;9.600;2023-12-20T07:28:13;1.92;;;1.80;;
20369;SDS011;10344;47.592;9.600;2023-12-20T07:30:39;1.77;;;1.60;;
20369;SDS011;10344;47.592;9.600;2023-12-20T07:33:07;1.70;;;1.60;;
20369;SDS011;10344;47.592;9.600;2023-12-20T07:35:37;1.50;;;1.40;;
20369;SDS011;10344;47.592;9.600;2023-12-20T07:38:03;1.50;;;1.40;;
20369;SDS011;10344;47.592;9.600;2023-12-20T07:40:31;1.50;;;1.40;;
20369;SDS011;10344;47.592;9.600;2023-12-20T07:42:57;1.58;;;1.45;;
20369;SDS011;10344;47.592;9.600;2023-12-20T07:45:23;1.95;;;1.55;;
20369;SDS011;10344;47.592;9.600;2023-12-20T07:47:51;1.67;;;1.58;;
20369;SDS011;10344;47.592;9.600;2023-12-20T07:50:19;2.63;;;1.75;;
20369;SDS011;10344;47.592;9.600;2023-12-20T07:52:48;2.67;;;1.60;;
20369;SDS011;10344;47.592;9.600;2023-12-20T07:55:13;1.70;;;1.60;;
20369;SDS011;10344;47.592;9.600;2023-12-20T07:57:39;1.80;;;1.70;;
20369;SDS011;10344;47.592;9.600;2023-12-20T08:00:05;1.50;;;1.40;;
20369;SDS011;10344;47.592;9.600;2023-12-20T08:02:31;1.70;;;1.60;;
20369;SDS011;10344;47.592;9.600;2023-12-20T08:04:59;1.50;;;1.40;;
20369;SDS011;10344;47.592;9.600;2023-12-20T08:07:26;1.50;;;1.40;;
20369;SDS011;10344;47.592;9.600;2023-12-20T08:09:52;1.30;;;1.20;;
20369;SDS011;10344;47.592;9.600;2023-12-20T08:12:19;1.50;;;1.40;;
20369;SDS011;10344;47.592;9.600;2023-12-20T08:14:45;1.42;;;1.33;;
20369;SDS011;10344;47.592;9.600;2023-12-20T08:17:11;1.40;;;1.30;;
20369;SDS011;10344;47.592;9.600;2023-12-20T08:19:37;1.45;;;1.35;;
20369;SDS011;10344;47.592;9.600;2023-12-20T08:22:03;2.20;;;1.47;;
20369;SDS011;10344;47.592;9.600;2023-12-20T08:24:29;1.50;;;1.40;;
20369;SDS011;10344;47.592;9.600;2023-12-20T08:26:55;1.30;;;1.20;;
20369;SDS011;10344;47.592;9.600;2023-12-20T08:29:20;1.50;;;1.40;;
20369;SDS011;10344;47.592;9.600;2023-12-20T08:31:46;1.67;;;1.50;;
20369;SDS011;10344;47.592;9.600;2023-12-20T08:34:16;1.60;;;1.30;;
20369;SDS011;10344;47.592;9.600;2023-12-20T08:36:42;1.50;;;1.40;;
20369;SDS011;10344;47.592;9.600;2023-12-20T08:39:08;1.47;;;1.37;;
20369;SDS011;10344;47.592;9.600;2023-12-20T08:41:34;1.38;;;1.27;;
20369;SDS011;10344;47.592;9.600;2023-12-20T08:44:00;1.85;;;1.48;;
20369;SDS011;10344;47.592;9.600;2023-12-20T08:46:26;1.50;;;1.40;;
20369;SDS011;10344;47.592;9.600;2023-12-20T08:48:52;1.50;;;1.40;;
20369;SDS011;10344;47.592;9.600;2023-12-20T08:51:17;1.50;;;1.40;;
20369;SDS011;10344;47.592;9.600;2023-12-20T08:53:44;1.42;;;1.33;;
20369;SDS011;10344;47.592;9.600;2023-12-20T08:56:12;1.40;;;1.30;;
20369;SDS011;10344;47.592;9.600;2023-12-20T08:58:41;7.65;;;2.20;;
20369;SDS011;10344;47.592;9.600;2023-12-20T09:01:07;4.25;;;1.70;;
20369;SDS011;10344;47.592;9.600;2023-12-20T09:03:32;2.67;;;1.40;;
20369;SDS011;10344;47.592;9.600;2023-12-20T09:05:58;1.57;;;1.47;;
20369;SDS011;10344;47.592;9.600;2023-12-20T09:08:24;1.80;;;1.70;;
20369;SDS011;10344;47.592;9.600;2023-12-20T09:10:49;1.40;;;1.30;;
20369;SDS011;10344;47.592;9.600;2023-12-20T09:13:17;1.52;;;1.42;;
20369;SDS011;10344;47.592;9.600;2023-12-20T09:15:45;1.48;;;1.38;;
20369;SDS011;10344;47.592;9.600;2023-12-20T09:18:11;1.30;;;1.20;;
20369;SDS011;10344;47.592;9.600;2023-12-20T09:20:39;1.17;;;1.08;;
20369;SDS011;10344;47.592;9.600;2023-12-20T09:23:05;1.53;;;1.20;;
20369;SDS011;10344;47.592;9.600;2023-12-20T09:25:35;1.15;;;1.05;;
20369;SDS011;10344;47.592;9.600;2023-12-20T09:28:03;1.10;;;1.10;;
20369;SDS011;10344;47.592;9.600;2023-12-20T09:30:28;1.50;;;1.40;;
20369;SDS011;10344;47.592;9.600;2023-12-20T09:32:54;1.60;;;1.50;;
20369;SDS011;10344;47.592;9.600;2023-12-20T09:35:20;1.35;;;1.30;;
20369;SDS011;10344;47.592;9.600;2023-12-20T09:37:46;1.33;;;1.23;;
20369;SDS011;10344;47.592;9.600;2023-12-20T09:40:14;1.30;;;1.20;;
20369;SDS011;10344;47.592;9.600;2023-12-20T09:45:12;1.20;;;1.20;;
20369;SDS011;10344;47.592;9.600;2023-12-20T09:47:41;1.27;;;1.17;;
20369;SDS011;10344;47.592;9.600;2023-12-20T09:50:08;1.27;;;1.13;;
20369;SDS011;10344;47.592;9.600;2023-12-20T09:52:34;1.90;;;1.42;;
20369;SDS011;10344;47.592;9.600;2023-12-20T09:55:04;1.55;;;1.45;;
20369;SDS011;10344;47.592;9.600;2023-12-20T09:57:33;1.58;;;1.48;;
20369;SDS011;10344;47.592;9.600;2023-12-20T09:59:59;1.50;;;1.40;;
20369;SDS011;10344;47.592;9.600;2023-12-20T10:02:24;1.80;;;1.70;;
20369;SDS011;10344;47.592;9.600;2023-12-20T10:04:54;1.40;;;1.30;;
20369;SDS011;10344;47.592;9.600;2023-12-20T10:07:21;1.50;;;1.40;;
20369;SDS011;10344;47.592;9.600;2023-12-20T10:09:47;1.50;;;1.40;;
20369;SDS011;10344;47.592;9.600;2023-12-20T10:12:13;1.73;;;1.63;;
20369;SDS011;10344;47.592;9.600;2023-12-20T10:14:39;2.05;;;1.70;;
20369;SDS011;10344;47.592;9.600;2023-12-20T10:17:05;1.92;;;1.80;;
20369;SDS011;10344;47.592;9.600;2023-12-20T10:19:31;1.70;;;1.60;;
20369;SDS011;10344;47.592;9.600;2023-12-20T10:21:58;2.00;;;1.80;;
20369;SDS011;10344;47.592;9.600;2023-12-20T10:24:29;1.90;;;1.70;;
20369;SDS011;10344;47.592;9.600;2023-12-20T10:27:02;2.10;;;1.90;;
20369;SDS011;10344;47.592;9.600;2023-12-20T10:29:37;2.70;;;2.22;;
20369;SDS011;10344;47.592;9.600;2023-12-20T10:32:22;2.47;;;2.10;;
20369;SDS011;10344;47.592;9.600;2023-12-20T10:34:53;2.78;;;2.00;;
20369;SDS011;10344;47.592;9.600;2023-12-20T10:37:22;2.10;;;1.90;;
20369;SDS011;10344;47.592;9.600;2023-12-20T10:39:50;2.08;;;1.80;;
20369;SDS011;10344;47.592;9.600;2023-12-20T10:42:21;1.88;;;1.67;;
20369;SDS011;10344;47.592;9.600;2023-12-20T10:44:50;2.42;;;2.00;;
20369;SDS011;10344;47.592;9.600;2023-12-20T10:47:16;1.85;;;1.75;;
20369;SDS011;10344;47.592;9.600;2023-12-20T10:49:42;2.20;;;2.00;;
20369;SDS011;10344;47.592;9.600;2023-12-20T10:52:09;2.30;;;1.95;;
20369;SDS011;10344;47.592;9.600;2023-12-20T10:54:42;2.03;;;1.90;;
20369;SDS011;10344;47.592;9.600;2023-12-20T10:57:12;2.08;;;1.77;;
20369;SDS011;10344;47.592;9.600;2023-12-20T10:59:38;2.40;;;2.20;;
20369;SDS011;10344;47.592;9.600;2023-12-20T11:02:05;2.35;;;2.15;;
20369;SDS011;10344;47.592;9.600;2023-12-20T11:07:22;2.78;;;2.50;;
20369;SDS011;10344;47.592;9.600;2023-12-20T11:10:02;2.30;;;2.10;;
20369;SDS011;10344;47.592;9.600;2023-12-20T11:13:06;2.35;;;2.15;;
20369;SDS011;10344;47.592;9.600;2023-12-20T11:15:37;3.03;;;2.40;;
20369;SDS011;10344;47.592;9.600;2023-12-20T11:18:03;2.40;;;2.20;;
20369;SDS011;10344;47.592;9.600;2023-12-20T11:20:37;2.58;;;2.38;;
20369;SDS011;10344;47.592;9.600;2023-12-20T11:23:07;2.53;;;2.33;;
20369;SDS011;10344;47.592;9.600;2023-12-20T11:25:46;2.05;;;1.92;;
20369;SDS011;10344;47.592;9.600;2023-12-20T11:28:13;2.60;;;2.40;;
20369;SDS011;10344;47.592;9.600;2023-12-20T11:30:42;2.55;;;2.35;;
20369;SDS011;10344;47.592;9.600;2023-12-20T11:33:08;2.60;;;2.17;;
20369;SDS011;10344;47.592;9.600;2023-12-20T11:35:34;2.42;;;2.22;;
20369;SDS011;10344;47.592;9.600;2023-12-20T11:38:01;2.35;;;2.15;;
20369;SDS011;10344;47.592;9.600;2023-12-20T11:40:27;2.35;;;2.15;;
20369;SDS011;10344;47.592;9.600;2023-12-20T11:42:53;2.90;;;2.40;;
20369;SDS011;10344;47.592;9.600;2023-12-20T11:45:21;2.70;;;2.30;;
20369;SDS011;10344;47.592;9.600;2023-12-20T11:47:50;2.42;;;2.22;;
20369;SDS011;10344;47.592;9.600;2023-12-20T11:50:19;2.65;;;2.45;;
20369;SDS011;10344;47.592;9.600;2023-12-20T11:52:46;2.42;;;2.22;;
20369;SDS011;10344;47.592;9.600;2023-12-20T11:55:13;2.20;;;2.00;;
20369;SDS011;10344;47.592;9.600;2023-12-20T11:57:39;2.17;;;2.07;;
20369;SDS011;10344;47.592;9.600;2023-12-20T12:00:05;3.45;;;2.10;;
20369;SDS011;10344;47.592;9.600;2023-12-20T12:02:31;2.38;;;2.17;;
20369;SDS011;10344;47.592;9.600;2023-12-20T12:04:57;2.38;;;2.17;;
20369;SDS011;10344;47.592;9.600;2023-12-20T12:07:24;2.30;;;2.10;;
20369;SDS011;10344;47.592;9.600;2023-12-20T12:09:50;2.22;;;2.08;;
20369;SDS011;10344;47.592;9.600;2023-12-20T12:12:16;2.53;;;2.23;;
20369;SDS011;10344;47.592;9.600;2023-12-20T12:14:44;2.30;;;2.05;;
20369;SDS011;10344;47.592;9.600;2023-12-20T12:17:13;2.30;;;2.10;;
20369;SDS011;10344;47.592;9.600;2023-12-20T12:19:40;2.50;;;2.30;;
20369;SDS011;10344;47.592;9.600;2023-12-20T12:22:10;2.63;;;2.42;;
20369;SDS011;10344;47.592;9.600;2023-12-20T12:24:40;2.47;;;2.28;;
20369;SDS011;10344;47.592;9.600;2023-12-20T12:27:10;2.60;;;2.40;;
20369;SDS011;10344;47.592;9.600;2023-12-20T12:29:37;2.60;;;2.40;;
20369;SDS011;10344;47.592;9.600;2023-12-20T12:32:05;2.38;;;2.17;;
20369;SDS011;10344;47.592;9.600;2023-12-20T12:34:33;2.38;;;2.17;;
20369;SDS011;10344;47.592;9.600;2023-12-20T12:36:59;2.67;;;2.20;;
20369;SDS011;10344;47.592;9.600;2023-12-20T12:39:26;2.40;;;2.20;;
20369;SDS011;10344;47.592;9.600;2023-12-20T12:41:52;2.50;;;2.30;;
20369;SDS011;10344;47.592;9.600;2023-12-20T12:44:18;2.30;;;2.10;;
20369;SDS011;10344;47.592;9.600;2023-12-20T12:46:47;2.88;;;2.58;;
20369;SDS011;10344;47.592;9.600;2023-12-20T12:49:15;2.57;;;2.20;;
20369;SDS011;10344;47.592;9.600;2023-12-20T12:51:43;2.25;;;2.05;;
20369;SDS011;10344;47.592;9.600;2023-12-20T12:54:12;3.00;;;2.10;;
20369;SDS011;10344;47.592;9.600;2023-12-20T12:56:40;2.42;;;2.15;;
20369;SDS011;10344;47.592;9.600;2023-12-20T12:59:06;1.93;;;1.83;;
20369;SDS011;10344;47.592;9.600;2023-12-20T13:01:32;2.33;;;2.03;;
20369;SDS011;10344;47.592;9.600;2023-12-20T13:03:57;3.13;;;2.13;;
20369;SDS011;10344;47.592;9.600;2023-12-20T13:06:23;2.30;;;2.10;;
20369;SDS011;10344;47.592;9.600;2023-12-20T13:08:49;1.83;;;1.73;;
20369;SDS011;10344;47.592;9.600;2023-12-20T13:11:15;1.92;;;1.70;;
20369;SDS011;10344;47.592;9.600;2023-12-20T13:13:43;1.65;;;1.50;;
20369;SDS011;10344;47.592;9.600;2023-12-20T13:16:08;1.50;;;1.40;;
20369;SDS011;10344;47.592;9.600;2023-12-20T13:18:36;1.70;;;1.60;;
20369;SDS011;10344;47.592;9.600;2023-12-20T13:21:02;1.90;;;1.77;;
20369;SDS011;10344;47.592;9.600;2023-12-20T13:23:28;1.90;;;1.80;;
20369;SDS011;10344;47.592;9.600;2023-12-20T13:25:56;1.65;;;1.55;;
20369;SDS011;10344;47.592;9.600;2023-12-20T13:28:24;1.70;;;1.60;;
20369;SDS011;10344;47.592;9.600;2023-12-20T13:30:49;1.70;;;1.60;;
20369;SDS011;10344;47.592;9.600;2023-12-20T13:33:15;1.42;;;1.33;;
20369;SDS011;10344;47.592;9.600;2023-12-20T13:35:41;1.40;;;1.30;;
20369;SDS011;10344;47.592;9.600;2023-12-20T13:38:14;1.27;;;1.17;;
20369;SDS011;10344;47.592;9.600;2023-12-20T13:40:40;1.20;;;1.20;;
20369;SDS011;10344;47.592;9.600;2023-12-20T13:43:05;1.23;;;1.17;;
20369;SDS011;10344;47.592;9.600;2023-12-20T13:45:31;1.02;;;1.02;;
20369;SDS011;10344;47.592;9.600;2023-12-20T13:47:58;1.60;;;1.27;;
20369;SDS011;10344;47.592;9.600;2023-12-20T13:50:26;1.25;;;1.10;;
20369;SDS011;10344;47.592;9.600;2023-12-20T13:52:52;1.27;;;1.17;;
20369;SDS011;10344;47.592;9.600;2023-12-20T13:55:17;1.20;;;1.20;;
20369;SDS011;10344;47.592;9.600;2023-12-20T13:57:47;1.25;;;1.20;;
20369;SDS011;10344;47.592;9.600;2023-12-20T14:00:13;1.90;;;1.20;;
20369;SDS011;10344;47.592;9.600;2023-12-20T14:02:40;1.15;;;1.13;;
20369;SDS011;10344;47.592;9.600;2023-12-20T14:05:07;1.30;;;1.20;;
20369;SDS011;10344;47.592;9.600;2023-12-20T14:07:36;1.42;;;1.20;;
20369;SDS011;10344;47.592;9.600;2023-12-20T14:10:02;1.50;;;1.40;;
20369;SDS011;10344;47.592;9.600;2023-12-20T14:12:28;1.48;;;1.38;;
20369;SDS011;10344;47.592;9.600;2023-12-20T14:14:54;1.40;;;1.30;;
20369;SDS011;10344;47.592;9.600;2023-12-20T14:17:21;1.30;;;1.23;;
20369;SDS011;10344;47.592;9.600;2023-12-20T14:19:47;1.48;;;1.38;;
20369;SDS011;10344;47.592;9.600;2023-12-20T14:22:14;1.35;;;1.25;;
20369;SDS011;10344;47.592;9.600;2023-12-20T14:24:44;1.75;;;1.40;;
20369;SDS011;10344;47.592;9.600;2023-12-20T14:27:10;1.63;;;1.30;;
20369;SDS011;10344;47.592;9.600;2023-12-20T14:29:36;1.50;;;1.40;;
20369;SDS011;10344;47.592;9.600;2023-12-20T14:32:05;1.17;;;1.17;;
20369;SDS011;10344;47.592;9.600;2023-12-20T14:34:31;1.30;;;1.20;;
20369;SDS011;10344;47.592;9.600;2023-12-20T14:36:56;1.90;;;1.70;;
20369;SDS011;10344;47.592;9.600;2023-12-20T14:39:24;1.42;;;1.27;;
20369;SDS011;10344;47.592;9.600;2023-12-20T14:41:52;1.63;;;1.52;;
20369;SDS011;10344;47.592;9.600;2023-12-20T14:44:19;1.40;;;1.20;;
20369;SDS011;10344;47.592;9.600;2023-12-20T14:46:44;1.45;;;1.35;;
20369;SDS011;10344;47.592;9.600;2023-12-20T14:49:10;1.88;;;1.40;;
20369;SDS011;10344;47.592;9.600;2023-12-20T14:51:36;1.30;;;1.20;;